Bookmark and Share
Track history (hours):
 

Houn Maru

Last reported at 2014-Apr-23 08:33 UTC. Time now 2014-Apr-23 09:44 UTC.
Position N 34°36' E 134°56'.

Length 91 m; draft 5.9 m.

Type: Tanker. MMSI: 431101172.

NotesDate/timePositionNaut miles runAvg speedWind from/ knotsBaromVisibWave heightAir tempDewpointWater temp
2014-Apr-23 08:33N 34°36' E 134°56'10 9.9
2014-Apr-23 07:33N 34°31' E 135°06'9 9.4
2014-Apr-23 06:33N 34°25' E 135°14'1 0.1
2014-Apr-23 01:33N 34°24' E 135°14'2 1.6
2014-Apr-23 00:31N 34°23' E 135°12'0 0.0
2014-Apr-22 23:28N 34°23' E 135°12'0 0.0
2014-Apr-22 22:28N 34°23' E 135°12'0 0.0
2014-Apr-22 21:28N 34°23' E 135°12'0 0.0
2014-Apr-22 20:16N 34°23' E 135°12'4 5.6
2014-Apr-22 19:33N 34°26' E 135°09'1110.9
2014-Apr-22 18:33N 34°36' E 135°03'9 8.6
2014-Apr-22 17:32N 34°34' E 134°52'3 0.1
2014-Apr-21 10:33N 34°36' E 134°55'9 8.6
2014-Apr-21 09:33N 34°35' E 135°05'1111.4
2014-Apr-21 08:33N 34°25' E 135°11'3 2.4
2014-Apr-21 07:22N 34°25' E 135°14'0 0.0
2014-Apr-21 06:10N 34°25' E 135°14'0 0.0
2014-Apr-21 05:22N 34°25' E 135°14'0 0.1
2014-Apr-21 04:26N 34°25' E 135°14'3 2.9
2014-Apr-21 03:32N 34°23' E 135°12'0 0.0
2014-Apr-21 02:32N 34°23' E 135°12'0 0.0
2014-Apr-21 01:32N 34°23' E 135°12'0 0.0
2014-Apr-21 00:32N 34°23' E 135°12'0 0.0
2014-Apr-20 23:32N 34°23' E 135°12'0 0.0
2014-Apr-20 22:32N 34°23' E 135°12'0 0.0
2014-Apr-20 21:32N 34°23' E 135°12'0 0.0
2014-Apr-20 20:32N 34°23' E 135°12'0 0.0
2014-Apr-20 19:32N 34°23' E 135°12'0 0.0
2014-Apr-20 18:32N 34°23' E 135°12'0 0.1
2014-Apr-20 17:34N 34°23' E 135°12'1010.4
2014-Apr-20 16:33N 34°32' E 135°06'8 7.9
2014-Apr-20 15:33N 34°36' E 134°58'5 0.1
2014-Apr-19 01:30N 34°35' E 134°52'1212.4
2014-Apr-19 00:33N 34°34' E 135°06'1010.2
2014-Apr-18 23:33N 34°29' E 135°17'0 0.0
2014-Apr-18 22:23N 34°29' E 135°17'0 0.0
2014-Apr-18 21:29N 34°29' E 135°17'0 0.0
2014-Apr-18 20:29N 34°29' E 135°17'0 0.0
2014-Apr-18 19:29N 34°29' E 135°17'0 0.0
2014-Apr-18 18:29N 34°29' E 135°17'0 0.0
2014-Apr-18 17:17N 34°29' E 135°17'0 0.0
2014-Apr-18 16:29N 34°29' E 135°17'0 0.0
2014-Apr-18 15:29N 34°29' E 135°17'0 0.0
2014-Apr-18 14:11N 34°29' E 135°17'0 0.0
2014-Apr-18 12:29N 34°29' E 135°17'0 0.0
2014-Apr-18 11:17N 34°29' E 135°17'0 0.0
2014-Apr-18 10:29N 34°29' E 135°17'0 0.0
2014-Apr-18 09:17N 34°29' E 135°17'0 0.1
2014-Apr-18 08:23N 34°29' E 135°17'0 0.1
2014-Apr-18 07:33N 34°29' E 135°17'6 5.7
2014-Apr-18 06:33N 34°24' E 135°14'0 0.1
2014-Apr-18 01:33N 34°25' E 135°14'2 1.6
2014-Apr-18 00:31N 34°23' E 135°13'0 0.0
2014-Apr-17 23:31N 34°23' E 135°13'0 0.0
2014-Apr-17 22:28N 34°23' E 135°13'0 0.0
2014-Apr-17 21:22N 34°23' E 135°13'0 0.0
2014-Apr-17 20:31N 34°23' E 135°13'0 0.0
2014-Apr-17 17:07N 34°23' E 135°13'0 0.0
2014-Apr-17 15:19N 34°23' E 135°13'0 0.1
2014-Apr-17 14:31N 34°23' E 135°13'0 0.0
2014-Apr-17 13:31N 34°23' E 135°13'5 5.1
2014-Apr-17 12:33N 34°26' E 135°08'10 9.9
2014-Apr-17 11:33N 34°35' E 135°03'8 7.4
2014-Apr-17 10:28N 34°35' E 134°53'2 0.1
2014-Apr-16 07:19N 34°36' E 134°55'7 8.8
2014-Apr-16 06:33N 34°36' E 135°03'1010.1
2014-Apr-16 05:33N 34°27' E 135°09'5 0.9
2014-Apr-16 00:13N 34°25' E 135°14'2 3.2
2014-Apr-15 23:32N 34°23' E 135°13'0 0.0
2014-Apr-15 22:29N 34°23' E 135°13'0 0.1
2014-Apr-15 21:32N 34°23' E 135°13'0 0.0
2014-Apr-15 20:32N 34°23' E 135°13'0 0.0
2014-Apr-15 19:32N 34°23' E 135°13'2 1.8
2014-Apr-15 18:33N 34°24' E 135°11'1312.7
2014-Apr-15 17:33N 34°35' E 135°03'7 0.2
2014-Apr-14 05:33N 34°36' E 134°55'19 2.1
2014-Apr-13 20:24N 34°23' E 135°13'0 0.1
2014-Apr-13 19:33N 34°23' E 135°13'0 0.0
2014-Apr-13 18:33N 34°23' E 135°13'0 0.0
2014-Apr-13 17:33N 34°23' E 135°13'0 0.0
2014-Apr-13 16:27N 34°23' E 135°13'0 0.0
2014-Apr-13 15:33N 34°23' E 135°13'0 0.1
2014-Apr-13 14:33N 34°23' E 135°13'4 4.0
2014-Apr-13 13:33N 34°26' E 135°09'1211.5
2014-Apr-13 12:33N 34°36' E 135°02'  

Dump ship's entire track history

sailing weather and tide predictions

Houn Maru — JG5489 — position and weather